Terminal Aerodrome Forecast
Issued by NWS

Current Version | Previous Version | Graphics & Text | Print | Product List | Glossary On
Versions: 1 2 3 4 5 6 7 8 9 10 11 12 13 14
022
FTUS41 KPBZ 212331
TAFHLG
TAF
KHLG 212331Z 2200/2224 31007KT P6SM SCT110
     FM221000 36005KT P6SM OVC025
     FM222100 02006KT P6SM VCSH OVC040=

USA.gov is the U.S. government's official web portal to all federal, state and local government web resources and services.